createdAt,value
2023-01-11T00:00:40.363Z,3.60
2023-01-11T00:03:06.988Z,3.60
2023-01-11T00:05:40.646Z,3.50
2023-01-11T00:08:08.179Z,3.70
2023-01-11T00:10:34.788Z,3.17
2023-01-11T00:13:01.775Z,4.10
2023-01-11T00:15:28.433Z,4.07
2023-01-11T00:17:54.906Z,4.20
2023-01-11T00:20:21.515Z,4.43
2023-01-11T00:22:47.985Z,4.20
2023-01-11T00:25:14.502Z,3.90
2023-01-11T00:27:41.046Z,4.40
2023-01-11T00:30:08.121Z,4.80
2023-01-11T00:32:34.546Z,3.50
2023-01-11T00:35:01.190Z,3.57
2023-01-11T00:37:27.631Z,4.37
2023-01-11T00:39:54.092Z,3.93
2023-01-11T00:42:39.178Z,4.10
2023-01-11T00:45:24.831Z,5.23
2023-01-11T00:47:57.364Z,4.77
2023-01-11T00:50:25.132Z,4.27
2023-01-11T00:52:51.610Z,4.30
2023-01-11T00:55:18.109Z,4.20
2023-01-11T00:57:44.549Z,4.67
2023-01-11T01:00:11.805Z,4.67
2023-01-11T01:02:38.341Z,4.40
2023-01-11T01:05:05.200Z,5.00
2023-01-11T01:07:31.814Z,4.87
2023-01-11T01:09:58.267Z,4.47
2023-01-11T01:12:43.451Z,4.87
2023-01-11T01:15:10.332Z,4.90
2023-01-11T01:17:36.787Z,4.87
2023-01-11T01:20:04.010Z,5.23
2023-01-11T01:22:30.514Z,5.17
2023-01-11T01:24:56.942Z,4.33
2023-01-11T01:27:23.501Z,4.33
2023-01-11T01:29:50.009Z,4.53
2023-01-11T01:32:16.498Z,4.80
2023-01-11T01:34:42.933Z,4.63
2023-01-11T01:37:11.387Z,5.10
2023-01-11T01:39:37.889Z,4.87
2023-01-11T01:42:06.006Z,5.20
2023-01-11T01:44:55.301Z,5.50
2023-01-11T01:47:28.766Z,5.00
2023-01-11T01:49:57.367Z,4.80
2023-01-11T01:52:29.105Z,5.90
2023-01-11T01:54:58.040Z,5.10
2023-01-11T01:57:27.744Z,4.83
2023-01-11T01:59:56.001Z,4.80
2023-01-11T02:02:24.480Z,5.07
2023-01-11T02:04:51.452Z,6.07
2023-01-11T02:07:20.211Z,5.27
2023-01-11T02:09:51.587Z,5.23
2023-01-11T02:12:18.774Z,4.70
2023-01-11T02:14:47.269Z,5.23
2023-01-11T02:17:13.999Z,4.23
2023-01-11T02:20:02.645Z,5.33
2023-01-11T02:22:44.290Z,4.37
2023-01-11T02:25:40.116Z,4.30
2023-01-11T02:28:11.205Z,4.67
2023-01-11T02:30:43.716Z,5.40
2023-01-11T02:33:22.417Z,5.07
2023-01-11T02:36:03.947Z,4.30
2023-01-11T02:38:58.381Z,4.80
2023-01-11T02:42:10.166Z,5.27
2023-01-11T02:45:01.472Z,5.13
2023-01-11T02:47:39.997Z,5.50
2023-01-11T02:50:11.657Z,5.30
2023-01-11T02:53:00.119Z,5.17
2023-01-11T02:55:30.470Z,5.20
2023-01-11T02:58:00.844Z,6.00
2023-01-11T03:00:27.463Z,6.63
2023-01-11T03:03:16.216Z,5.17
2023-01-11T03:05:55.025Z,6.03
2023-01-11T03:08:33.737Z,5.03
2023-01-11T03:11:03.198Z,5.13
2023-01-11T03:13:46.960Z,4.30
2023-01-11T03:16:19.059Z,5.47
2023-01-11T03:18:59.662Z,5.33
2023-01-11T03:21:50.841Z,4.77
2023-01-11T03:24:31.144Z,4.67
2023-01-11T03:27:18.012Z,4.83
2023-01-11T03:29:54.593Z,4.43
2023-01-11T03:32:24.344Z,5.70
2023-01-11T03:34:58.855Z,6.40
2023-01-11T03:37:42.513Z,4.80
2023-01-11T03:40:37.255Z,6.00
2023-01-11T03:43:12.463Z,5.20
2023-01-11T03:45:52.871Z,5.00
2023-01-11T03:48:29.401Z,6.03
2023-01-11T03:50:56.677Z,7.17
2023-01-11T03:53:24.112Z,5.43
2023-01-11T03:55:54.915Z,4.87
2023-01-11T03:58:21.683Z,6.80
2023-01-11T04:00:49.047Z,5.07
2023-01-11T04:03:15.736Z,6.50
2023-01-11T04:05:44.026Z,6.07
2023-01-11T04:08:11.554Z,5.07
2023-01-11T04:10:38.211Z,4.27
2023-01-11T04:13:04.735Z,5.43
2023-01-11T04:15:32.724Z,4.03
2023-01-11T04:18:04.890Z,4.90
2023-01-11T04:20:33.145Z,4.83
2023-01-11T04:22:59.593Z,4.77
2023-01-11T04:25:26.319Z,4.20
2023-01-11T04:27:52.805Z,5.10
2023-01-11T04:30:19.406Z,4.20
2023-01-11T04:32:45.878Z,4.57
2023-01-11T04:35:12.437Z,4.00
2023-01-11T04:37:38.913Z,4.40
2023-01-11T04:40:06.112Z,4.33
2023-01-11T04:42:32.623Z,4.30
2023-01-11T04:44:59.095Z,3.93
2023-01-11T04:47:25.874Z,3.30
2023-01-11T04:49:52.610Z,3.70
2023-01-11T04:52:20.231Z,3.70
2023-01-11T04:54:48.733Z,3.60
2023-01-11T04:57:17.128Z,3.23
2023-01-11T04:59:43.607Z,2.63
2023-01-11T05:02:10.052Z,3.10
2023-01-11T05:04:36.549Z,3.23
2023-01-11T05:07:03.093Z,3.03
2023-01-11T05:09:29.599Z,2.90
2023-01-11T05:11:56.071Z,2.90
2023-01-11T05:14:22.642Z,3.27
2023-01-11T05:16:49.219Z,3.27
2023-01-11T05:19:15.741Z,3.10
2023-01-11T05:21:42.519Z,3.23
2023-01-11T05:24:12.763Z,3.47
2023-01-11T05:26:40.963Z,3.40
2023-01-11T05:29:10.803Z,3.13
2023-01-11T05:31:40.122Z,3.00
2023-01-11T05:34:07.079Z,3.20
2023-01-11T05:36:34.196Z,3.43
2023-01-11T05:39:00.686Z,3.43
2023-01-11T05:41:27.976Z,3.70
2023-01-11T05:44:13.709Z,3.33
2023-01-11T05:46:41.897Z,4.20
2023-01-11T05:49:09.593Z,3.97
2023-01-11T05:51:38.057Z,3.40
2023-01-11T05:54:06.961Z,4.10
2023-01-11T05:56:33.474Z,3.80
2023-01-11T05:59:00.025Z,3.90
2023-01-11T06:01:26.927Z,4.13
2023-01-11T06:03:53.459Z,4.40
2023-01-11T06:06:20.902Z,4.60
2023-01-11T06:08:47.524Z,4.60
2023-01-11T06:11:14.931Z,4.13
2023-01-11T06:13:41.920Z,4.50
2023-01-11T06:16:16.910Z,4.47
2023-01-11T06:18:46.030Z,4.27
2023-01-11T06:21:13.174Z,4.10
2023-01-11T06:23:41.863Z,4.40
2023-01-11T06:26:10.805Z,4.53
2023-01-11T06:28:37.920Z,4.57
2023-01-11T06:31:05.467Z,4.27
2023-01-11T06:33:32.226Z,5.00
2023-01-11T06:35:59.172Z,5.00
2023-01-11T06:38:26.106Z,4.70
2023-01-11T06:40:54.023Z,4.87
2023-01-11T06:43:21.507Z,4.67
2023-01-11T06:45:48.078Z,4.80
2023-01-11T06:48:14.758Z,4.90
2023-01-11T06:50:41.234Z,5.67
2023-01-11T06:53:07.714Z,5.60
2023-01-11T06:55:34.164Z,5.73
2023-01-11T06:58:00.621Z,6.87
2023-01-11T07:00:27.275Z,7.33
2023-01-11T07:02:53.819Z,7.20
2023-01-11T07:05:20.344Z,6.70
2023-01-11T07:07:46.880Z,6.87
2023-01-11T07:10:15.392Z,6.97
2023-01-11T07:12:42.149Z,6.80
2023-01-11T07:15:10.240Z,8.43
2023-01-11T07:17:37.116Z,8.07
2023-01-11T07:20:04.988Z,7.80
2023-01-11T07:22:35.270Z,8.30
2023-01-11T07:25:02.196Z,8.40
2023-01-11T07:27:28.659Z,9.50
2023-01-11T07:29:55.143Z,8.93
2023-01-11T07:32:21.589Z,7.77
2023-01-11T07:34:48.092Z,7.87
2023-01-11T07:37:28.478Z,9.33
2023-01-11T07:39:55.640Z,9.93
2023-01-11T07:42:40.873Z,10.07
2023-01-11T07:45:08.005Z,10.63
2023-01-11T07:47:34.464Z,12.33
2023-01-11T07:50:00.930Z,10.90
2023-01-11T07:52:27.437Z,10.80
2023-01-11T07:54:53.887Z,10.30
2023-01-11T07:57:20.423Z,10.87
2023-01-11T07:59:46.882Z,10.37
2023-01-11T08:02:13.316Z,11.10
2023-01-11T08:04:39.757Z,10.43
2023-01-11T08:07:06.256Z,9.93
2023-01-11T08:09:32.759Z,9.70
2023-01-11T08:12:17.799Z,10.80
2023-01-11T08:14:44.263Z,9.67
2023-01-11T08:17:15.703Z,11.60
2023-01-11T08:19:42.980Z,10.83
2023-01-11T08:22:10.045Z,11.47
2023-01-11T08:24:36.570Z,11.63
2023-01-11T08:27:03.912Z,12.33
2023-01-11T08:29:30.678Z,12.07
2023-01-11T08:31:57.257Z,12.60
2023-01-11T08:34:23.784Z,13.50
2023-01-11T08:36:50.238Z,12.60
2023-01-11T08:39:16.724Z,12.40
2023-01-11T08:41:43.212Z,13.03
2023-01-11T08:44:11.837Z,12.80
2023-01-11T08:46:38.485Z,11.57
2023-01-11T08:49:11.165Z,11.03
2023-01-11T08:51:41.562Z,11.60
2023-01-11T08:54:12.879Z,11.03
2023-01-11T08:56:39.500Z,8.53
2023-01-11T08:59:06.839Z,7.60
2023-01-11T09:01:33.680Z,8.80
2023-01-11T09:04:00.268Z,8.33
2023-01-11T09:06:26.835Z,7.63
2023-01-11T09:08:53.488Z,7.47
2023-01-11T09:11:38.478Z,7.50
2023-01-11T09:14:04.953Z,6.50
2023-01-11T09:16:31.476Z,6.23
2023-01-11T09:18:58.013Z,5.67
2023-01-11T09:21:24.440Z,5.67
2023-01-11T09:23:50.917Z,5.33
2023-01-11T09:26:17.455Z,4.60
2023-01-11T09:28:43.993Z,4.63
2023-01-11T09:31:10.588Z,4.40
2023-01-11T09:33:38.494Z,4.20
2023-01-11T09:36:05.931Z,4.80
2023-01-11T09:38:34.002Z,4.90
2023-01-11T09:41:17.805Z,4.37
2023-01-11T09:43:51.464Z,3.87
2023-01-11T09:46:18.396Z,4.00
2023-01-11T09:48:48.471Z,4.23
2023-01-11T09:51:16.561Z,4.10
2023-01-11T09:53:49.463Z,4.30
2023-01-11T09:56:24.651Z,3.87
2023-01-11T09:58:57.360Z,3.90
2023-01-11T10:01:33.744Z,3.33
2023-01-11T10:04:06.281Z,3.70
2023-01-11T10:06:56.148Z,3.40
2023-01-11T10:18:31.356Z,3.53
2023-01-11T10:18:58.281Z,4.53
2023-01-11T10:21:29.822Z,3.90
2023-01-11T10:24:02.765Z,4.63
2023-01-11T10:26:37.290Z,4.53
2023-01-11T10:29:49.815Z,3.37
2023-01-11T10:32:40.067Z,2.83
2023-01-11T10:35:25.988Z,2.80
2023-01-11T10:38:28.086Z,3.93
2023-01-11T10:41:10.447Z,3.43
2023-01-11T10:43:43.176Z,3.10
2023-01-11T10:46:21.556Z,3.70
2023-01-11T10:48:50.970Z,3.23
2023-01-11T10:51:24.765Z,2.77
2023-01-11T10:54:16.173Z,3.13
2023-01-11T10:57:04.790Z,3.30
2023-01-11T10:59:43.997Z,3.33
2023-01-11T11:02:52.636Z,3.70
2023-01-11T11:05:35.713Z,2.93
2023-01-11T11:08:14.710Z,3.57
2023-01-11T11:10:59.031Z,3.43
2023-01-11T11:13:50.340Z,3.47
2023-01-11T11:16:22.985Z,3.33
2023-01-11T11:18:54.430Z,3.77
2023-01-11T11:21:30.877Z,4.10
2023-01-11T11:24:01.097Z,3.23
2023-01-11T11:26:38.420Z,3.47
2023-01-11T11:29:10.665Z,3.70
2023-01-11T11:31:42.900Z,3.20
2023-01-11T11:34:16.268Z,3.60
2023-01-11T11:36:44.538Z,2.97
2023-01-11T11:39:30.515Z,3.10
2023-01-11T11:42:05.383Z,3.00
2023-01-11T11:44:32.003Z,3.10
2023-01-11T11:47:06.021Z,3.23
2023-01-11T11:49:34.414Z,3.23
2023-01-11T11:52:02.735Z,3.90
2023-01-11T11:54:35.393Z,3.30
2023-01-11T11:57:29.674Z,3.53
2023-01-11T12:00:09.106Z,3.33
2023-01-11T12:02:37.233Z,4.20
2023-01-11T12:05:09.604Z,3.77
2023-01-11T12:07:54.656Z,3.40
2023-01-11T12:10:26.806Z,3.33
2023-01-11T12:12:53.276Z,3.50
2023-01-11T12:15:28.960Z,3.53
2023-01-11T12:17:57.413Z,4.03
2023-01-11T12:20:23.867Z,3.37
2023-01-11T12:22:51.415Z,3.87
2023-01-11T12:25:25.292Z,3.60
2023-01-11T12:28:28.252Z,3.27
2023-01-11T12:31:13.713Z,4.03
2023-01-11T12:34:13.988Z,3.50
2023-01-11T12:36:53.672Z,3.93
2023-01-11T12:39:38.915Z,3.73
2023-01-11T12:42:24.239Z,4.30
2023-01-11T12:45:20.469Z,3.73
2023-01-11T12:48:07.781Z,3.70
2023-01-11T12:50:59.632Z,4.10
2023-01-11T12:54:00.056Z,3.27
2023-01-11T12:56:44.273Z,3.77
2023-01-11T12:59:44.551Z,4.57
2023-01-11T13:02:21.772Z,4.17
2023-01-11T13:04:52.954Z,5.03
2023-01-11T13:07:34.643Z,4.73
2023-01-11T13:10:16.967Z,3.90
2023-01-11T13:12:48.271Z,4.10
2023-01-11T13:15:26.798Z,4.37
2023-01-11T13:18:20.649Z,4.40
2023-01-11T13:21:02.855Z,4.43
2023-01-11T13:23:41.946Z,3.93
2023-01-11T13:26:23.474Z,3.67
2023-01-11T13:28:55.241Z,4.13
2023-01-11T13:31:22.115Z,4.07
2023-01-11T13:33:54.083Z,4.17
2023-01-11T13:36:26.343Z,4.47
2023-01-11T13:41:29.008Z,3.80
2023-01-11T13:44:15.339Z,3.40
2023-01-11T13:47:03.001Z,4.20
2023-01-11T13:49:42.746Z,4.17
2023-01-11T13:52:14.978Z,3.73
2023-01-11T13:54:44.380Z,4.67
2023-01-11T13:57:15.316Z,4.17
2023-01-11T13:59:45.959Z,3.97
2023-01-11T14:02:23.563Z,3.50
2023-01-11T14:05:21.278Z,3.97
2023-01-11T14:08:00.889Z,3.60
2023-01-11T14:10:40.491Z,3.93
2023-01-11T14:13:48.390Z,3.70
2023-01-11T14:16:28.989Z,3.33
2023-01-11T14:19:17.230Z,3.87
2023-01-11T14:21:43.673Z,4.50
2023-01-11T14:24:10.363Z,4.00
2023-01-11T14:26:50.806Z,3.97
2023-01-11T14:29:35.732Z,3.60
2023-01-11T14:32:31.291Z,4.57
2023-01-11T14:35:41.019Z,3.20
2023-01-11T14:38:27.760Z,4.03
2023-01-11T14:41:29.451Z,3.80
2023-01-11T14:44:14.162Z,3.67
2023-01-11T14:46:51.505Z,3.73
2023-01-11T14:49:44.967Z,3.80
2023-01-11T14:52:12.252Z,3.60
2023-01-11T14:54:44.149Z,3.10
2023-01-11T14:57:40.822Z,3.77
2023-01-11T15:00:19.399Z,4.30
2023-01-11T15:02:47.572Z,3.73
2023-01-11T15:05:29.387Z,3.83
2023-01-11T15:08:13.041Z,3.13
2023-01-11T15:11:23.963Z,3.63
2023-01-11T15:13:57.487Z,3.93
2023-01-11T15:16:45.563Z,4.10
2023-01-11T15:19:23.398Z,3.23
2023-01-11T15:21:53.260Z,3.23
2023-01-11T15:24:30.208Z,3.97
2023-01-11T15:26:59.067Z,4.10
2023-01-11T15:29:56.014Z,3.87
2023-01-11T15:32:31.180Z,3.87
2023-01-11T15:35:22.495Z,3.30
2023-01-11T15:37:58.200Z,3.70
2023-01-11T15:40:32.008Z,3.80
2023-01-11T15:43:25.884Z,3.17
2023-01-11T15:46:14.118Z,3.47
2023-01-11T15:49:18.737Z,3.00
2023-01-11T15:52:29.433Z,3.40
2023-01-11T15:55:34.614Z,3.67
2023-01-11T15:58:23.935Z,4.30
2023-01-11T16:01:19.414Z,3.80
2023-01-11T16:04:15.434Z,3.77
2023-01-11T16:06:50.026Z,3.83
2023-01-11T16:09:53.969Z,3.63
2023-01-11T16:12:48.238Z,4.10
2023-01-11T16:16:03.722Z,4.40
2023-01-11T16:18:35.520Z,3.90
2023-01-11T16:21:05.027Z,4.70
2023-01-11T16:23:32.489Z,4.30
2023-01-11T16:25:59.330Z,4.53
2023-01-11T16:28:26.519Z,4.20
2023-01-11T16:31:04.919Z,4.70
2023-01-11T16:33:33.560Z,4.60
2023-01-11T16:36:23.752Z,4.60
2023-01-11T16:39:12.058Z,4.97
2023-01-11T16:41:46.380Z,5.03
2023-01-11T16:44:27.199Z,4.83
2023-01-11T16:47:11.223Z,4.60
2023-01-11T16:49:38.768Z,4.63
2023-01-11T16:52:27.088Z,4.60
2023-01-11T16:54:55.119Z,4.43
2023-01-11T16:57:31.278Z,4.67
2023-01-11T17:00:01.732Z,4.93
2023-01-11T17:02:40.105Z,4.93
2023-01-11T17:05:21.634Z,4.97
2023-01-11T17:07:48.084Z,4.40
2023-01-11T17:10:27.863Z,4.33
2023-01-11T17:13:45.649Z,3.20
2023-01-11T17:16:14.851Z,3.97
2023-01-11T17:18:42.817Z,4.37
2023-01-11T17:21:20.054Z,3.47
2023-01-11T17:23:48.036Z,4.10
2023-01-11T17:26:17.374Z,4.47
2023-01-11T17:28:45.418Z,3.70
2023-01-11T17:31:20.531Z,4.40
2023-01-11T17:33:48.786Z,4.50
2023-01-11T17:36:16.422Z,5.00
2023-01-11T17:38:44.348Z,4.63
2023-01-11T17:41:31.006Z,4.60
2023-01-11T17:44:16.072Z,4.00
2023-01-11T17:46:42.652Z,4.27
2023-01-11T17:49:21.113Z,5.13
2023-01-11T17:51:47.614Z,5.40
2023-01-11T17:54:21.583Z,4.93
2023-01-11T17:56:56.844Z,4.27
2023-01-11T17:59:25.185Z,4.60
2023-01-11T18:02:03.924Z,4.83
2023-01-11T18:04:31.474Z,3.90
2023-01-11T18:07:07.695Z,3.67
2023-01-11T18:09:37.630Z,3.73
2023-01-11T18:12:21.532Z,3.97
2023-01-11T18:15:00.357Z,3.77
2023-01-11T18:17:37.347Z,3.97
2023-01-11T18:20:29.701Z,3.97
2023-01-11T18:22:56.252Z,3.63
2023-01-11T18:25:31.032Z,3.90
2023-01-11T18:28:17.723Z,4.53
2023-01-11T18:30:54.865Z,4.70
2023-01-11T18:33:23.914Z,4.20
2023-01-11T18:35:52.653Z,4.40
2023-01-11T18:38:24.328Z,4.17
2023-01-11T18:40:52.122Z,4.20
2023-01-11T18:43:25.217Z,3.90
2023-01-11T18:45:52.019Z,4.10
2023-01-11T18:48:18.507Z,4.33
2023-01-11T18:50:45.360Z,3.93
2023-01-11T18:53:12.735Z,4.37
2023-01-11T18:55:39.601Z,4.50
2023-01-11T18:58:06.331Z,3.93
2023-01-11T19:00:32.905Z,3.97
2023-01-11T19:02:59.583Z,4.57
2023-01-11T19:05:29.121Z,4.27
2023-01-11T19:07:55.606Z,5.00
2023-01-11T19:10:22.935Z,4.87
2023-01-11T19:12:50.747Z,4.90
2023-01-11T19:15:17.376Z,4.43
2023-01-11T19:17:43.902Z,3.77
2023-01-11T19:20:11.134Z,4.90
2023-01-11T19:22:38.205Z,5.43
2023-01-11T19:25:06.770Z,5.13
2023-01-11T19:27:33.264Z,5.20
2023-01-11T19:29:59.779Z,4.53
2023-01-11T19:32:26.252Z,4.60
2023-01-11T19:34:53.516Z,4.47
2023-01-11T19:37:20.781Z,4.93
2023-01-11T19:39:47.370Z,4.50
2023-01-11T19:42:13.855Z,4.63
2023-01-11T19:44:40.372Z,4.47
2023-01-11T19:47:12.103Z,4.20
2023-01-11T19:49:40.274Z,4.67
2023-01-11T19:52:12.569Z,4.60
2023-01-11T19:54:43.320Z,4.57
2023-01-11T19:57:18.935Z,5.73
2023-01-11T19:59:45.528Z,7.03
2023-01-11T20:02:13.821Z,11.37
2023-01-11T20:04:40.658Z,9.67
2023-01-11T20:07:08.358Z,6.97
2023-01-11T20:09:37.789Z,7.70
2023-01-11T20:12:06.117Z,6.83
2023-01-11T20:14:33.868Z,7.97
2023-01-11T20:17:00.408Z,6.50
2023-01-11T20:19:27.003Z,4.83
2023-01-11T20:21:53.546Z,5.07
2023-01-11T20:24:20.047Z,4.70
2023-01-11T20:26:48.719Z,4.33
2023-01-11T20:29:15.339Z,4.77
2023-01-11T20:31:41.779Z,4.87
2023-01-11T20:34:11.077Z,5.03
2023-01-11T20:36:37.691Z,4.93
2023-01-11T20:39:05.197Z,6.00
2023-01-11T20:41:46.861Z,5.20
2023-01-11T20:44:16.082Z,6.83
2023-01-11T20:46:43.205Z,7.00
2023-01-11T20:49:09.779Z,6.40
2023-01-11T20:51:36.767Z,7.17
2023-01-11T20:54:04.773Z,6.57
2023-01-11T20:56:33.050Z,5.90
2023-01-11T20:59:01.220Z,5.57
2023-01-11T21:01:28.537Z,5.20
2023-01-11T21:03:58.333Z,6.83
2023-01-11T21:06:24.962Z,5.77
2023-01-11T21:08:56.261Z,5.90
2023-01-11T21:11:23.177Z,5.00
2023-01-11T21:13:54.243Z,5.27
2023-01-11T21:16:22.930Z,5.20
2023-01-11T21:18:57.830Z,5.77
2023-01-11T21:21:25.518Z,6.37
2023-01-11T21:24:00.119Z,6.80
2023-01-11T21:26:27.897Z,8.33
2023-01-11T21:28:58.709Z,5.80
2023-01-11T21:31:27.059Z,7.13
2023-01-11T21:33:53.594Z,7.60
2023-01-11T21:36:22.383Z,6.90
2023-01-11T21:38:49.102Z,6.33
2023-01-11T21:41:40.213Z,5.07
2023-01-11T21:44:08.003Z,8.07
2023-01-11T21:46:34.983Z,8.77
2023-01-11T21:49:01.673Z,7.57
2023-01-11T21:51:29.844Z,7.57
2023-01-11T21:53:57.277Z,6.00
2023-01-11T21:56:24.028Z,5.93
2023-01-11T21:58:50.696Z,6.13
2023-01-11T22:01:20.250Z,6.50
2023-01-11T22:03:46.918Z,5.60
2023-01-11T22:06:15.681Z,6.20
2023-01-11T22:08:45.261Z,6.03
2023-01-11T22:11:13.835Z,6.20
2023-01-11T22:13:40.726Z,6.07
2023-01-11T22:16:12.517Z,5.57
2023-01-11T22:18:41.118Z,5.50
2023-01-11T22:21:10.661Z,6.60
2023-01-11T22:23:37.568Z,6.73
2023-01-11T22:26:08.505Z,6.50
2023-01-11T22:28:57.843Z,5.83
2023-01-11T22:31:26.456Z,6.60
2023-01-11T22:33:53.465Z,5.77
2023-01-11T22:36:20.555Z,5.37
2023-01-11T22:38:47.400Z,5.03
2023-01-11T22:41:14.988Z,5.13
2023-01-11T22:43:45.243Z,5.67
2023-01-11T22:46:17.527Z,5.77
2023-01-11T22:48:44.112Z,5.60
2023-01-11T22:51:11.341Z,4.63
2023-01-11T22:53:42.688Z,5.20
2023-01-11T22:56:10.060Z,5.10
2023-01-11T22:58:36.619Z,4.60
2023-01-11T23:01:13.645Z,4.67
2023-01-11T23:03:41.346Z,5.23
2023-01-11T23:06:08.946Z,5.63
2023-01-11T23:08:41.452Z,5.83
2023-01-11T23:11:08.743Z,5.20
2023-01-11T23:13:54.946Z,5.10
2023-01-11T23:16:24.457Z,4.90
2023-01-11T23:18:50.949Z,4.97
2023-01-11T23:21:17.429Z,5.77
2023-01-11T23:23:44.020Z,5.07
2023-01-11T23:26:12.201Z,4.50
2023-01-11T23:28:39.322Z,4.30
2023-01-11T23:31:19.449Z,4.33
2023-01-11T23:33:47.531Z,5.00
2023-01-11T23:36:14.555Z,5.07
2023-01-11T23:38:41.391Z,4.30
2023-01-11T23:41:28.417Z,5.57
2023-01-11T23:43:54.992Z,4.90
2023-01-11T23:46:40.539Z,5.03
2023-01-11T23:49:08.260Z,5.33
2023-01-11T23:51:35.624Z,5.10
2023-01-11T23:54:05.574Z,5.20
2023-01-11T23:56:33.073Z,5.10
2023-01-11T23:59:00.056Z,5.13
